L Anse, Michigan
Current Conditions -  °F | °C
As of 4:01 PM on Thursday 20 Nov 2014 (Local Time) from KCMX Reporting Station
Light Snow Light Snow  
Wind Chill: -9°   Ceiling: 2000
Heat Index:   Visibility: 0.75mi
Dew Point:   Wind: 17mph
Humidity: 73%   Direction: 300°WNW
Pressure: 29.92"   Gusts: NA
Location:  46.7277°N, 88.2881°W
Report Text: KCMX 202101Z AUTO 30015KT 3/4SM -SN VV020 M13/M17 A2992 RMK AO2 P0000 T11281167
Loading
Personal Weather Stations






























Interactive Weather Map New forecast layout! Learn more

10-Day Weather Forecast

Advertisements
Track Severe Weather on mobile